createdAt,value
2023-05-14T00:00:22.100Z,0.30
2023-05-14T00:02:51.765Z,0.40
2023-05-14T00:05:19.898Z,0.30
2023-05-14T00:07:47.984Z,0.30
2023-05-14T00:10:17.682Z,0.40
2023-05-14T00:12:45.675Z,0.40
2023-05-14T00:15:13.728Z,0.30
2023-05-14T00:17:42.483Z,0.40
2023-05-14T00:20:13.108Z,0.30
2023-05-14T00:22:41.438Z,0.30
2023-05-14T00:25:09.956Z,0.30
2023-05-14T00:27:38.768Z,0.20
2023-05-14T00:30:07.854Z,0.30
2023-05-14T00:32:35.930Z,0.30
2023-05-14T00:35:04.466Z,0.28
2023-05-14T00:37:33.809Z,0.25
2023-05-14T00:40:01.768Z,0.30
2023-05-14T00:42:29.855Z,0.30
2023-05-14T00:44:57.902Z,0.20
2023-05-14T00:47:25.826Z,0.30
2023-05-14T00:49:53.849Z,0.10
2023-05-14T00:52:22.238Z,0.32
2023-05-14T00:54:51.725Z,0.65
2023-05-14T00:57:19.707Z,0.30
2023-05-14T00:59:47.659Z,0.40
2023-05-14T01:02:15.740Z,0.30
2023-05-14T01:04:43.762Z,0.20
2023-05-14T01:07:13.876Z,0.50
2023-05-14T01:09:44.630Z,0.40
2023-05-14T01:12:18.565Z,0.30
2023-05-14T01:14:52.776Z,0.20
2023-05-14T01:17:21.877Z,0.20
2023-05-14T01:19:50.054Z,0.20
2023-05-14T01:22:19.547Z,0.20
2023-05-14T01:24:47.673Z,0.30
2023-05-14T01:27:18.713Z,0.20
2023-05-14T01:29:49.611Z,0.20
2023-05-14T01:32:17.784Z,0.35
2023-05-14T01:34:45.871Z,0.30
2023-05-14T01:37:14.025Z,0.22
2023-05-14T01:39:43.503Z,0.50
2023-05-14T01:42:11.694Z,0.30
2023-05-14T01:44:41.527Z,0.30
2023-05-14T01:47:09.624Z,0.32
2023-05-14T01:49:38.038Z,0.30
2023-05-14T01:52:06.481Z,0.20
2023-05-14T01:54:34.425Z,0.30
2023-05-14T01:57:03.932Z,0.20
2023-05-14T01:59:31.871Z,0.20
2023-05-14T02:02:01.525Z,0.20
2023-05-14T02:04:29.585Z,0.20
2023-05-14T02:06:57.595Z,0.20
2023-05-14T02:09:25.749Z,0.32
2023-05-14T02:11:53.919Z,0.30
2023-05-14T02:14:23.437Z,0.20
2023-05-14T02:16:52.054Z,0.40
2023-05-14T02:19:20.020Z,0.20
2023-05-14T02:21:49.035Z,0.40
2023-05-14T02:24:17.036Z,0.20
2023-05-14T02:26:44.960Z,0.40
2023-05-14T02:29:12.933Z,0.50
2023-05-14T02:31:42.291Z,0.30
2023-05-14T02:34:11.378Z,0.22
2023-05-14T02:36:39.392Z,0.20
2023-05-14T02:39:07.467Z,0.30
2023-05-14T02:41:35.602Z,0.25
2023-05-14T02:44:03.669Z,0.47
2023-05-14T02:46:32.331Z,0.30
2023-05-14T02:49:03.022Z,0.40
2023-05-14T02:51:31.051Z,0.20
2023-05-14T02:53:59.112Z,0.30
2023-05-14T02:56:27.604Z,0.30
2023-05-14T02:58:55.662Z,0.30
2023-05-14T03:01:24.296Z,0.30
2023-05-14T03:03:52.690Z,0.20
2023-05-14T03:06:23.355Z,0.17
2023-05-14T03:08:51.323Z,0.30
2023-05-14T03:11:19.414Z,0.28
2023-05-14T03:13:47.555Z,0.28
2023-05-14T03:16:15.575Z,0.30
2023-05-14T03:18:43.658Z,0.30
2023-05-14T03:21:11.680Z,0.25
2023-05-14T03:23:41.038Z,0.35
2023-05-14T03:26:09.004Z,0.20
2023-05-14T03:28:36.877Z,0.30
2023-05-14T03:31:04.996Z,0.20
2023-05-14T03:33:33.191Z,0.20
2023-05-14T03:36:01.187Z,0.20
2023-05-14T03:38:29.164Z,0.45
2023-05-14T03:40:58.868Z,0.15
2023-05-14T03:43:26.801Z,0.30
2023-05-14T03:45:54.725Z,0.30
2023-05-14T03:48:22.802Z,0.20
2023-05-14T03:50:51.329Z,0.30
2023-05-14T03:53:19.422Z,0.30
2023-05-14T03:55:47.504Z,0.30
2023-05-14T03:58:17.578Z,0.20
2023-05-14T04:00:45.757Z,0.20
2023-05-14T04:03:13.911Z,0.30
2023-05-14T04:05:42.040Z,0.20
2023-05-14T04:08:10.126Z,0.13
2023-05-14T04:10:38.227Z,0.20
2023-05-14T04:13:06.288Z,0.20
2023-05-14T04:15:39.401Z,0.30
2023-05-14T04:18:07.557Z,0.30
2023-05-14T04:20:35.600Z,0.20
2023-05-14T04:23:03.647Z,0.30
2023-05-14T04:25:31.668Z,0.20
2023-05-14T04:27:59.842Z,0.30
2023-05-14T04:30:27.819Z,0.20
2023-05-14T04:32:57.510Z,0.30
2023-05-14T04:35:25.902Z,0.25
2023-05-14T04:37:53.978Z,0.20
2023-05-14T04:40:23.063Z,0.30
2023-05-14T04:42:53.342Z,0.30
2023-05-14T04:45:21.411Z,0.30
2023-05-14T04:47:49.531Z,0.25
2023-05-14T04:50:19.238Z,0.30
2023-05-14T04:52:47.219Z,0.30
2023-05-14T04:55:15.223Z,0.22
2023-05-14T04:57:45.862Z,0.30
2023-05-14T05:00:14.787Z,0.20
2023-05-14T05:02:43.004Z,0.30
2023-05-14T05:05:11.414Z,0.17
2023-05-14T05:07:40.904Z,0.30
2023-05-14T05:10:10.156Z,0.22
2023-05-14T05:12:38.117Z,0.25
2023-05-14T05:15:06.704Z,0.20
2023-05-14T05:17:34.751Z,0.20
2023-05-14T05:20:02.751Z,0.20
2023-05-14T05:22:30.821Z,0.30
2023-05-14T05:25:00.216Z,0.25
2023-05-14T05:27:28.493Z,0.20
2023-05-14T05:29:56.617Z,0.30
2023-05-14T05:32:24.715Z,0.30
2023-05-14T05:34:53.070Z,0.30
2023-05-14T05:37:21.130Z,0.30
2023-05-14T05:39:49.510Z,0.30
2023-05-14T05:42:18.894Z,0.20
2023-05-14T05:44:46.931Z,0.30
2023-05-14T05:47:14.899Z,0.20
2023-05-14T05:49:42.875Z,0.30
2023-05-14T05:52:11.017Z,0.30
2023-05-14T05:54:39.929Z,0.40
2023-05-14T05:57:07.953Z,0.20
2023-05-14T05:59:37.457Z,0.30
2023-05-14T06:02:05.952Z,0.30
2023-05-14T06:04:34.058Z,0.20
2023-05-14T06:07:05.207Z,0.20
2023-05-14T06:09:33.327Z,0.20
2023-05-14T06:12:01.347Z,0.20
2023-05-14T06:14:29.370Z,0.30
2023-05-14T06:16:58.833Z,0.32
2023-05-14T06:19:26.908Z,0.30
2023-05-14T06:21:54.998Z,0.30
2023-05-14T06:24:22.996Z,0.20
2023-05-14T06:26:51.050Z,0.22
2023-05-14T06:29:19.181Z,0.40
2023-05-14T06:31:47.109Z,0.30
2023-05-14T06:34:16.446Z,0.30
2023-05-14T06:36:44.440Z,0.40
2023-05-14T06:39:12.607Z,0.55
2023-05-14T06:41:40.592Z,0.30
2023-05-14T06:44:08.697Z,0.40
2023-05-14T06:46:36.643Z,0.30
2023-05-14T06:49:04.661Z,0.30
2023-05-14T06:51:34.329Z,0.40
2023-05-14T06:54:03.103Z,0.35
2023-05-14T06:56:31.004Z,0.30
2023-05-14T06:58:58.920Z,0.30
2023-05-14T07:01:26.898Z,0.32
2023-05-14T07:03:55.076Z,0.45
2023-05-14T07:06:23.213Z,0.25
2023-05-14T07:08:53.433Z,0.30
2023-05-14T07:11:22.265Z,0.50
2023-05-14T07:13:50.378Z,0.30
2023-05-14T07:16:18.294Z,0.20
2023-05-14T07:18:46.630Z,0.28
2023-05-14T07:21:14.708Z,0.40
2023-05-14T07:23:42.695Z,0.40
2023-05-14T07:26:12.122Z,0.22
2023-05-14T07:28:40.085Z,0.20
2023-05-14T07:31:09.297Z,0.25
2023-05-14T07:33:37.481Z,0.40
2023-05-14T07:36:05.844Z,0.30
2023-05-14T07:38:33.921Z,0.40
2023-05-14T07:41:01.832Z,0.40
2023-05-14T07:43:31.259Z,0.47
2023-05-14T07:45:59.385Z,0.60
2023-05-14T07:48:27.430Z,0.30
2023-05-14T07:50:55.686Z,0.43
2023-05-14T07:53:23.672Z,0.60
2023-05-14T07:55:51.840Z,0.50
2023-05-14T07:58:19.890Z,0.60
2023-05-14T08:00:49.260Z,0.50
2023-05-14T08:03:17.342Z,0.40
2023-05-14T08:05:45.645Z,0.90
2023-05-14T08:08:13.598Z,0.73
2023-05-14T08:10:41.573Z,0.50
2023-05-14T08:13:09.667Z,0.50
2023-05-14T08:15:37.598Z,0.50
2023-05-14T08:18:07.056Z,0.50
2023-05-14T08:20:35.122Z,0.50
2023-05-14T08:23:03.207Z,0.50
2023-05-14T08:25:31.365Z,0.40
2023-05-14T08:27:59.938Z,0.60
2023-05-14T08:30:28.429Z,0.50
2023-05-14T08:32:56.570Z,0.70
2023-05-14T08:35:26.018Z,0.60
2023-05-14T08:37:54.004Z,0.68
2023-05-14T08:40:22.334Z,0.73
2023-05-14T08:42:50.572Z,0.55
2023-05-14T08:45:19.524Z,0.75
2023-05-14T08:47:48.814Z,0.50
2023-05-14T08:50:16.854Z,0.50
2023-05-14T08:52:46.144Z,0.60
2023-05-14T08:55:14.088Z,0.73
2023-05-14T08:57:42.126Z,0.60
2023-05-14T09:00:12.331Z,0.63
2023-05-14T09:02:41.139Z,0.50
2023-05-14T09:05:10.433Z,0.82
2023-05-14T09:07:38.325Z,0.80
2023-05-14T09:10:09.353Z,0.70
2023-05-14T09:12:37.328Z,0.80
2023-05-14T09:15:06.610Z,0.50
2023-05-14T09:17:34.737Z,0.70
2023-05-14T09:20:02.796Z,0.77
2023-05-14T09:22:31.835Z,0.70
2023-05-14T09:25:04.547Z,0.40
2023-05-14T09:27:34.071Z,0.50
2023-05-14T09:30:10.034Z,0.60
2023-05-14T09:32:39.210Z,0.60
2023-05-14T09:35:17.098Z,0.60
2023-05-14T09:37:46.332Z,0.50
2023-05-14T09:40:15.001Z,0.73
2023-05-14T09:42:44.406Z,0.60
2023-05-14T09:45:12.871Z,0.60
2023-05-14T09:47:40.933Z,0.85
2023-05-14T09:50:09.521Z,0.70
2023-05-14T09:52:37.895Z,0.90
2023-05-14T09:55:06.583Z,0.80
2023-05-14T09:57:34.721Z,0.60
2023-05-14T10:00:04.323Z,0.70
2023-05-14T10:02:37.568Z,0.90
2023-05-14T10:05:07.053Z,0.98
2023-05-14T10:07:37.823Z,0.90
2023-05-14T10:10:08.131Z,0.80
2023-05-14T10:12:36.379Z,0.77
2023-05-14T10:15:08.306Z,0.80
2023-05-14T10:17:36.321Z,0.90
2023-05-14T10:20:05.831Z,0.65
2023-05-14T10:22:35.437Z,0.73
2023-05-14T10:25:04.066Z,0.80
2023-05-14T10:27:32.086Z,0.70
2023-05-14T10:30:00.045Z,1.05
2023-05-14T10:32:33.040Z,0.60
2023-05-14T10:35:01.127Z,0.88
2023-05-14T10:37:29.297Z,0.95
2023-05-14T10:39:59.751Z,0.77
2023-05-14T10:42:28.332Z,0.90
2023-05-14T10:44:58.731Z,0.70
2023-05-14T10:47:27.324Z,0.80
2023-05-14T10:49:57.759Z,0.90
2023-05-14T10:52:25.835Z,0.60
2023-05-14T10:54:54.349Z,0.60
2023-05-14T10:57:23.463Z,0.60
2023-05-14T10:59:53.367Z,0.70
2023-05-14T11:02:25.673Z,0.93
2023-05-14T11:04:57.313Z,0.60
2023-05-14T11:07:26.405Z,0.60
2023-05-14T11:09:54.814Z,0.75
2023-05-14T11:12:22.836Z,0.50
2023-05-14T11:14:51.281Z,0.70
2023-05-14T11:17:19.309Z,0.60
2023-05-14T11:19:48.366Z,0.80
2023-05-14T11:22:19.215Z,0.82
2023-05-14T11:24:47.190Z,0.70
2023-05-14T11:27:15.102Z,0.80
2023-05-14T11:29:45.022Z,0.70
2023-05-14T11:32:13.116Z,0.63
2023-05-14T11:34:41.641Z,0.80
2023-05-14T11:37:10.151Z,0.80
2023-05-14T11:39:39.598Z,0.88
2023-05-14T11:42:11.957Z,1.10
2023-05-14T11:44:40.203Z,1.20
2023-05-14T11:47:08.336Z,1.05
2023-05-14T11:49:37.876Z,0.90
2023-05-14T11:52:06.878Z,0.93
2023-05-14T11:54:35.052Z,1.25
2023-05-14T11:57:08.447Z,1.50
2023-05-14T11:59:36.498Z,0.88
2023-05-14T12:02:04.935Z,1.13
2023-05-14T12:04:33.068Z,1.10
2023-05-14T12:07:01.441Z,1.02
2023-05-14T12:09:29.570Z,1.13
2023-05-14T12:11:57.500Z,0.80
2023-05-14T12:14:26.930Z,0.80
2023-05-14T12:16:55.007Z,0.80
2023-05-14T12:19:23.535Z,0.70
2023-05-14T12:21:52.935Z,0.80
2023-05-14T12:24:21.210Z,0.68
2023-05-14T12:26:49.645Z,0.82
2023-05-14T12:29:18.071Z,0.60
2023-05-14T12:31:51.265Z,0.75
2023-05-14T12:34:22.253Z,0.73
2023-05-14T12:36:50.308Z,0.68
2023-05-14T12:39:18.916Z,0.65
2023-05-14T12:41:47.006Z,0.57
2023-05-14T12:44:14.965Z,0.63
2023-05-14T12:46:43.004Z,0.47
2023-05-14T12:49:12.358Z,0.70
2023-05-14T12:51:40.286Z,0.70
2023-05-14T12:54:08.225Z,0.70
2023-05-14T12:56:37.769Z,0.80
2023-05-14T12:59:05.854Z,0.65
2023-05-14T13:01:33.824Z,0.65
2023-05-14T13:04:01.945Z,0.70
2023-05-14T13:06:31.761Z,0.60
2023-05-14T13:09:02.008Z,0.60
2023-05-14T13:11:31.820Z,0.63
2023-05-14T13:13:59.947Z,0.52
2023-05-14T13:16:28.444Z,0.73
2023-05-14T13:18:56.573Z,0.65
2023-05-14T13:21:24.621Z,0.60
2023-05-14T13:23:54.142Z,0.75
2023-05-14T13:26:22.562Z,0.65
2023-05-14T13:28:50.561Z,0.60
2023-05-14T13:31:18.544Z,0.70
2023-05-14T13:33:46.529Z,0.60
2023-05-14T13:36:15.042Z,0.70
2023-05-14T13:38:42.888Z,0.55
2023-05-14T13:41:12.331Z,0.60
2023-05-14T13:43:40.333Z,0.55
2023-05-14T13:46:08.327Z,0.68
2023-05-14T13:48:37.344Z,0.60
2023-05-14T13:51:05.258Z,0.60
2023-05-14T13:53:33.244Z,0.60
2023-05-14T13:56:01.885Z,0.60
2023-05-14T13:58:31.333Z,0.50
2023-05-14T14:00:59.331Z,0.55
2023-05-14T14:03:27.336Z,0.50
2023-05-14T14:05:55.641Z,0.35
2023-05-14T14:08:24.537Z,0.40
2023-05-14T14:10:54.670Z,0.52
2023-05-14T14:13:25.999Z,0.55
2023-05-14T14:15:55.324Z,0.60
2023-05-14T14:18:23.271Z,0.45
2023-05-14T14:20:51.316Z,0.52
2023-05-14T14:23:19.670Z,0.50
2023-05-14T14:25:47.737Z,0.50
2023-05-14T14:28:15.785Z,0.50
2023-05-14T14:30:43.937Z,0.60
2023-05-14T14:33:13.408Z,0.60
2023-05-14T14:35:41.464Z,0.40
2023-05-14T14:38:09.469Z,0.50
2023-05-14T14:40:37.425Z,0.63
2023-05-14T14:43:05.412Z,0.52
2023-05-14T14:45:35.993Z,0.50
2023-05-14T14:48:26.427Z,0.40
2023-05-14T14:50:54.461Z,0.52
2023-05-14T14:53:22.720Z,0.70
2023-05-14T14:55:50.798Z,0.60
2023-05-14T14:58:19.425Z,0.43
2023-05-14T15:00:47.690Z,0.50
2023-05-14T15:03:16.053Z,0.50
2023-05-14T15:05:45.699Z,0.47
2023-05-14T15:08:13.686Z,0.45
2023-05-14T15:10:41.824Z,0.50
2023-05-14T15:13:10.274Z,0.40
2023-05-14T15:15:38.616Z,0.50
2023-05-14T15:18:06.794Z,0.32
2023-05-14T15:20:35.018Z,0.50
2023-05-14T15:23:04.393Z,0.30
2023-05-14T15:25:32.610Z,0.40
2023-05-14T15:28:00.591Z,0.40
2023-05-14T15:30:28.633Z,0.40
2023-05-14T15:32:56.788Z,0.30
2023-05-14T15:35:25.177Z,0.50
2023-05-14T15:37:56.242Z,0.22
2023-05-14T15:40:25.897Z,0.50
2023-05-14T15:42:54.125Z,0.38
2023-05-14T15:45:36.163Z,0.30
2023-05-14T15:48:04.314Z,0.30
2023-05-14T15:50:32.346Z,0.28
2023-05-14T15:53:01.137Z,0.30
2023-05-14T15:55:30.703Z,0.50
2023-05-14T15:57:58.798Z,0.40
2023-05-14T16:00:27.122Z,0.40
2023-05-14T16:02:55.474Z,0.40
2023-05-14T16:05:23.437Z,0.30
2023-05-14T16:07:51.484Z,0.70
2023-05-14T16:10:21.065Z,0.50
2023-05-14T16:12:50.691Z,0.50
2023-05-14T16:15:18.859Z,0.40
2023-05-14T16:17:46.926Z,0.50
2023-05-14T16:20:14.997Z,0.40
2023-05-14T16:22:43.072Z,0.60
2023-05-14T16:25:11.166Z,0.40
2023-05-14T16:27:39.211Z,0.40
2023-05-14T16:30:10.046Z,0.40
2023-05-14T16:32:38.408Z,0.50
2023-05-14T16:35:06.921Z,0.47
2023-05-14T16:37:35.036Z,0.30
2023-05-14T16:40:03.246Z,0.30
2023-05-14T16:42:31.367Z,0.43
2023-05-14T16:44:59.387Z,0.40
2023-05-14T16:47:28.786Z,0.43
2023-05-14T16:49:56.963Z,0.40
2023-05-14T16:52:25.084Z,0.50
2023-05-14T16:54:53.088Z,0.35
2023-05-14T16:57:21.229Z,0.50
2023-05-14T16:59:49.325Z,0.43
2023-05-14T17:02:17.516Z,0.50
2023-05-14T17:04:46.922Z,0.52
2023-05-14T17:07:14.913Z,0.40
2023-05-14T17:09:42.963Z,0.65
2023-05-14T17:12:13.030Z,0.60
2023-05-14T17:14:41.116Z,0.77
2023-05-14T17:17:09.162Z,0.80
2023-05-14T17:19:37.198Z,0.90
2023-05-14T17:22:07.414Z,0.80
2023-05-14T17:24:36.643Z,1.10
2023-05-14T17:27:04.937Z,0.73
2023-05-14T17:29:32.987Z,0.63
2023-05-14T17:32:01.151Z,0.93
2023-05-14T17:34:29.236Z,0.60
2023-05-14T17:36:57.261Z,0.70
2023-05-14T17:39:26.695Z,0.73
2023-05-14T17:41:54.770Z,0.60
2023-05-14T17:44:22.864Z,0.60
2023-05-14T17:46:50.979Z,0.60
2023-05-14T17:49:19.103Z,0.70
2023-05-14T17:51:47.131Z,0.60
2023-05-14T17:54:15.104Z,0.80
2023-05-14T17:56:44.615Z,0.80
2023-05-14T17:59:12.892Z,0.70
2023-05-14T18:01:41.324Z,0.82
2023-05-14T18:04:09.605Z,0.70
2023-05-14T18:06:37.764Z,1.10
2023-05-14T18:09:05.910Z,0.70
2023-05-14T18:11:34.133Z,0.60
2023-05-14T18:14:03.485Z,0.70
2023-05-14T18:16:31.501Z,0.70
2023-05-14T18:19:00.411Z,0.60
2023-05-14T18:21:28.432Z,0.80
2023-05-14T18:23:57.197Z,0.73
2023-05-14T18:26:25.232Z,0.60
2023-05-14T18:28:53.267Z,0.50
2023-05-14T18:31:22.742Z,0.60
2023-05-14T18:33:50.898Z,0.60
2023-05-14T18:36:19.889Z,0.50
2023-05-14T18:38:47.930Z,0.60
2023-05-14T18:41:15.924Z,0.60
2023-05-14T18:43:43.948Z,0.70
2023-05-14T18:46:12.426Z,0.60
2023-05-14T18:48:41.852Z,0.60
2023-05-14T18:51:11.316Z,0.80
2023-05-14T18:53:39.412Z,0.50
2023-05-14T18:56:07.497Z,0.75
2023-05-14T18:58:35.485Z,0.60
2023-05-14T19:01:03.715Z,0.70
2023-05-14T19:03:31.847Z,0.60
2023-05-14T19:06:01.284Z,0.55
2023-05-14T19:08:29.329Z,0.60
2023-05-14T19:10:57.405Z,0.50
2023-05-14T19:13:28.596Z,0.63
2023-05-14T19:15:56.690Z,0.60
2023-05-14T19:18:24.584Z,0.60
2023-05-14T19:20:52.478Z,0.52
2023-05-14T19:23:22.126Z,0.50
2023-05-14T19:25:50.079Z,0.70
2023-05-14T19:28:19.924Z,0.50
2023-05-14T19:30:48.005Z,0.50
2023-05-14T19:33:16.038Z,0.50
2023-05-14T19:35:44.051Z,0.50
2023-05-14T19:38:12.094Z,0.40
2023-05-14T19:40:42.925Z,0.50
2023-05-14T19:43:12.026Z,0.47
2023-05-14T19:45:40.199Z,0.50
2023-05-14T19:48:08.176Z,0.60
2023-05-14T19:50:36.844Z,0.50
2023-05-14T19:53:04.791Z,0.50
2023-05-14T19:55:32.807Z,0.50
2023-05-14T19:58:02.135Z,0.50
2023-05-14T20:00:30.265Z,0.50
2023-05-14T20:02:59.753Z,0.60
2023-05-14T20:05:27.996Z,0.43
2023-05-14T20:07:55.968Z,0.50
2023-05-14T20:10:24.362Z,0.40
2023-05-14T20:12:52.427Z,0.60
2023-05-14T20:15:21.834Z,0.50
2023-05-14T20:17:49.837Z,0.52
2023-05-14T20:20:17.956Z,0.50
2023-05-14T20:22:46.004Z,0.45
2023-05-14T20:25:14.093Z,0.50
2023-05-14T20:27:42.323Z,0.50
2023-05-14T20:30:10.987Z,0.50
2023-05-14T20:32:40.510Z,0.40
2023-05-14T20:35:09.159Z,0.55
2023-05-14T20:37:38.002Z,0.50
2023-05-14T20:40:10.330Z,0.50
2023-05-14T20:42:38.457Z,0.50
2023-05-14T20:45:07.549Z,0.32
2023-05-14T20:47:35.835Z,0.50
2023-05-14T20:50:05.831Z,0.50
2023-05-14T20:52:33.733Z,0.50
2023-05-14T20:55:02.294Z,0.60
2023-05-14T20:57:30.517Z,0.50
2023-05-14T20:59:58.530Z,0.50
2023-05-14T21:02:26.644Z,0.40
2023-05-14T21:04:54.821Z,0.40
2023-05-14T21:07:24.228Z,0.40
2023-05-14T21:09:52.675Z,0.45
2023-05-14T21:12:20.803Z,0.50
2023-05-14T21:14:48.806Z,0.60
2023-05-14T21:17:16.773Z,0.50
2023-05-14T21:19:44.853Z,0.98
2023-05-14T21:22:13.673Z,0.57
2023-05-14T21:24:43.147Z,0.50
2023-05-14T21:27:11.216Z,0.50
2023-05-14T21:29:39.696Z,0.50
2023-05-14T21:32:08.402Z,0.60
2023-05-14T21:34:36.551Z,0.47
2023-05-14T21:37:04.714Z,0.50
2023-05-14T21:39:32.739Z,0.50
2023-05-14T21:42:02.117Z,0.40
2023-05-14T21:44:30.089Z,0.40
2023-05-14T21:46:58.067Z,0.47
2023-05-14T21:49:26.106Z,0.50
2023-05-14T21:51:54.642Z,0.30
2023-05-14T21:54:22.726Z,0.50
2023-05-14T21:56:50.707Z,0.40
2023-05-14T21:59:20.055Z,0.40
2023-05-14T22:04:18.923Z,0.50
2023-05-14T22:06:47.092Z,0.50
2023-05-14T22:09:15.216Z,0.40
2023-05-14T22:11:43.237Z,0.40
2023-05-14T22:14:11.223Z,0.50
2023-05-14T22:16:40.653Z,0.50
2023-05-14T22:19:08.782Z,0.50
2023-05-14T22:21:36.918Z,0.50
2023-05-14T22:24:05.302Z,0.43
2023-05-14T22:26:33.235Z,0.50
2023-05-14T22:29:01.120Z,0.43
2023-05-14T22:31:29.220Z,0.40
2023-05-14T22:33:58.737Z,0.35
2023-05-14T22:36:26.698Z,0.50
2023-05-14T22:38:54.814Z,0.40
2023-05-14T22:41:23.167Z,0.45
2023-05-14T22:43:52.000Z,0.50
2023-05-14T22:46:20.008Z,0.40
2023-05-14T22:48:49.291Z,0.35
2023-05-14T22:51:19.294Z,0.50
2023-05-14T22:53:47.507Z,0.35
2023-05-14T22:56:15.537Z,0.40
2023-05-14T22:58:43.648Z,0.40
2023-05-14T23:01:11.770Z,0.50
2023-05-14T23:03:39.844Z,0.50
2023-05-14T23:06:08.586Z,0.40
2023-05-14T23:08:38.006Z,0.50
2023-05-14T23:11:06.097Z,0.50
2023-05-14T23:13:34.351Z,0.50
2023-05-14T23:16:02.556Z,0.50
2023-05-14T23:18:30.864Z,0.60
2023-05-14T23:20:58.984Z,0.50
2023-05-14T23:23:27.073Z,0.60
2023-05-14T23:25:56.463Z,0.35
2023-05-14T23:28:24.510Z,0.40
2023-05-14T23:30:52.528Z,0.50
2023-05-14T23:33:20.580Z,0.40
2023-05-14T23:35:49.130Z,0.40
2023-05-14T23:38:17.302Z,0.30
2023-05-14T23:40:45.282Z,0.30
2023-05-14T23:43:15.074Z,0.38
2023-05-14T23:45:43.106Z,0.50
2023-05-14T23:48:11.169Z,0.60
2023-05-14T23:50:39.174Z,0.30
2023-05-14T23:53:07.985Z,0.50
2023-05-14T23:55:36.087Z,0.50
2023-05-14T23:58:04.181Z,0.40
